Time;durP1;ratioP1;P1;durP2;ratioP2;P2;SDS_P1;SDS_P2;PMS_P1;PMS_P2;Temp;Humidity;BMP_temperature;BMP_pressure;BME280_temperature;BME280_humidity;BME280_pressure;Samples;Min_cycle;Max_cycle;Signal;HPM_P1;HPM_P2
2022/04/18 00:02:11;;;;;;;1.60;1.50;;;24.60;99.90;;;;;;5069091;28;20267;-66
2022/04/18 00:04:39;;;;;;;4.37;1.50;;;24.60;99.90;;;;;;5072080;28;20586;-64
2022/04/18 00:07:06;;;;;;;5.70;1.60;;;24.50;99.90;;;;;;5071580;28;20641;-65
2022/04/18 00:09:34;;;;;;;4.13;1.57;;;25.30;99.90;;;;;;5066577;28;20172;-65
2022/04/18 00:12:02;;;;;;;4.20;1.40;;;25.40;99.90;;;;;;5066740;28;20668;-65
2022/04/18 00:14:30;;;;;;;3.47;1.87;;;24.90;99.90;;;;;;5071925;28;20220;-66
2022/04/18 00:16:58;;;;;;;5.70;1.57;;;24.50;99.90;;;;;;5071222;28;20684;-65
2022/04/18 00:19:26;;;;;;;3.17;1.30;;;24.30;99.90;;;;;;5071582;28;20183;-65
2022/04/18 00:21:54;;;;;;;7.03;2.17;;;24.30;99.90;;;;;;5071640;28;20199;-66
2022/04/18 00:24:21;;;;;;;3.40;1.70;;;24.60;99.90;;;;;;5070418;28;20180;-66
2022/04/18 00:26:49;;;;;;;2.80;1.80;;;24.50;99.90;;;;;;5071318;28;20179;-66
2022/04/18 00:29:17;;;;;;;7.33;2.33;;;25.10;99.90;;;;;;5071601;28;20175;-64
2022/04/18 00:31:45;;;;;;;4.80;1.80;;;25.10;99.90;;;;;;5071794;28;20180;-65
2022/04/18 00:34:14;;;;;;;3.43;1.80;;;25.10;99.90;;;;;;5071362;28;20188;-65
2022/04/18 00:36:44;;;;;;;3.47;1.90;;;24.90;99.90;;;;;;5071153;28;20680;-65
2022/04/18 00:39:12;;;;;;;8.07;2.33;;;25.00;99.90;;;;;;5071599;28;20171;-66
2022/04/18 00:41:40;;;;;;;3.37;1.70;;;25.10;99.90;;;;;;5071217;28;20249;-66
2022/04/18 00:44:07;;;;;;;2.70;1.53;;;25.20;99.90;;;;;;5071339;28;20191;-66
2022/04/18 00:46:35;;;;;;;4.90;1.60;;;25.30;99.90;;;;;;5071317;28;20191;-66
2022/04/18 00:49:03;;;;;;;3.13;1.20;;;25.70;99.90;;;;;;5071065;28;20200;-66
2022/04/18 00:51:31;;;;;;;5.37;1.50;;;24.80;99.90;;;;;;5071261;28;20179;-66
2022/04/18 00:53:59;;;;;;;2.30;1.47;;;24.60;99.90;;;;;;5071109;28;20274;-66
2022/04/18 00:56:27;;;;;;;4.07;1.60;;;25.10;99.90;;;;;;5070629;28;20681;-65
2022/04/18 00:58:56;;;;;;;3.07;1.27;;;25.00;99.90;;;;;;5071137;28;20173;-66
2022/04/18 01:01:24;;;;;;;3.67;1.60;;;25.20;99.90;;;;;;5071364;28;20190;-66
2022/04/18 01:03:52;;;;;;;1.33;1.10;;;25.70;99.90;;;;;;5070937;28;20330;-65
2022/04/18 01:06:20;;;;;;;5.43;1.13;;;25.50;99.90;;;;;;5070891;28;20211;-66
2022/04/18 01:08:51;;;;;;;1.97;1.10;;;25.50;99.90;;;;;;5070949;28;20277;-66
2022/04/18 01:11:18;;;;;;;3.83;1.10;;;26.00;99.90;;;;;;5071211;28;20172;-65
2022/04/18 01:13:50;;;;;;;2.33;1.40;;;25.50;99.90;;;;;;5071346;28;20263;-65
2022/04/18 01:16:18;;;;;;;2.40;1.00;;;26.10;99.90;;;;;;5070574;28;20319;-66
2022/04/18 01:18:48;;;;;;;4.00;1.73;;;27.20;99.90;;;;;;5071101;28;20171;-65
2022/04/18 01:21:21;;;;;;;7.10;1.10;;;27.50;99.90;;;;;;5071201;28;20271;-66
2022/04/18 01:23:49;;;;;;;3.10;1.30;;;28.00;99.90;;;;;;5072461;28;20264;-66
2022/04/18 01:29:02;;;;;;;1.60;1.30;;;28.10;99.90;;;;;;5074610;28;20229;-66
2022/04/18 01:31:38;;;;;;;1.57;1.03;;;28.10;99.90;;;;;;5074690;28;20542;-65
2022/04/18 01:34:07;;;;;;;3.87;1.50;;;28.20;99.90;;;;;;5074437;28;20188;-66
2022/04/18 01:36:35;;;;;;;4.23;1.20;;;27.80;99.90;;;;;;5074153;28;20219;-66
2022/04/18 01:39:03;;;;;;;3.17;1.10;;;27.80;99.90;;;;;;5074522;28;20176;-66
2022/04/18 01:41:31;;;;;;;3.73;1.20;;;27.80;99.90;;;;;;5074334;28;20649;-66
2022/04/18 01:43:59;;;;;;;5.20;1.20;;;28.30;99.90;;;;;;5074100;28;20184;-67
2022/04/18 01:46:26;;;;;;;3.67;1.03;;;28.80;99.90;;;;;;5074138;28;20191;-66
2022/04/18 01:48:54;;;;;;;2.50;0.97;;;27.90;99.90;;;;;;5074328;28;20194;-66
2022/04/18 01:51:22;;;;;;;2.63;0.90;;;28.20;99.90;;;;;;5074580;28;20190;-67
2022/04/18 01:53:50;;;;;;;2.60;1.27;;;27.70;99.90;;;;;;5072960;28;20187;-66
2022/04/18 01:56:17;;;;;;;3.53;1.00;;;27.60;99.90;;;;;;5073937;28;20228;-67
2022/04/18 01:58:45;;;;;;;1.37;0.80;;;28.00;99.90;;;;;;5074282;28;20176;-67
2022/04/18 02:01:13;;;;;;;0.87;0.80;;;27.80;99.90;;;;;;5074179;28;20188;-67
2022/04/18 02:03:44;;;;;;;1.87;1.30;;;28.00;99.90;;;;;;5074070;28;20229;-67
2022/04/18 02:06:12;;;;;;;1.50;1.00;;;28.10;99.90;;;;;;5073675;28;20226;-66
2022/04/18 02:08:40;;;;;;;5.53;1.13;;;28.00;99.90;;;;;;5074079;28;20172;-66
2022/04/18 02:11:08;;;;;;;3.20;1.00;;;28.20;99.90;;;;;;5073819;28;20249;-67
2022/04/18 02:13:36;;;;;;;2.83;0.97;;;28.60;99.90;;;;;;5074085;28;20267;-66
2022/04/18 02:16:05;;;;;;;1.23;0.87;;;29.10;99.90;;;;;;5073297;28;20239;-67
2022/04/18 02:18:32;;;;;;;2.70;1.13;;;29.20;99.90;;;;;;5072685;28;20188;-66
2022/04/18 02:21:00;;;;;;;3.47;0.80;;;28.90;99.90;;;;;;5073964;28;20179;-67
2022/04/18 02:23:28;;;;;;;1.57;1.07;;;29.10;99.90;;;;;;5073884;28;20187;-67
2022/04/18 02:25:56;;;;;;;3.10;1.10;;;29.10;99.90;;;;;;5073429;28;20539;-66
2022/04/18 02:28:24;;;;;;;1.50;0.50;;;29.00;99.90;;;;;;5073780;28;20187;-66
2022/04/18 02:30:52;;;;;;;0.73;0.60;;;29.10;99.90;;;;;;5072334;28;20188;-67
2022/04/18 02:33:19;;;;;;;1.47;0.53;;;29.20;99.90;;;;;;5073691;28;20184;-65
2022/04/18 02:35:47;;;;;;;2.38;0.80;;;29.30;99.90;;;;;;5072225;28;20207;-66
2022/04/18 02:38:15;;;;;;;2.77;0.60;;;29.20;99.90;;;;;;5073629;28;20270;-65
2022/04/18 02:40:42;;;;;;;2.47;0.60;;;29.20;99.90;;;;;;5073424;28;20543;-66
2022/04/18 02:43:11;;;;;;;1.97;0.60;;;29.50;99.90;;;;;;5073312;28;20180;-66
2022/04/18 02:45:39;;;;;;;0.50;0.50;;;28.70;99.90;;;;;;5072907;28;20186;-67
2022/04/18 02:48:07;;;;;;;2.60;0.80;;;29.30;99.90;;;;;;5073222;28;20577;-67
2022/04/18 02:50:35;;;;;;;2.38;0.90;;;29.30;99.90;;;;;;5071976;28;20217;-66
2022/04/18 02:53:05;;;;;;;4.18;1.20;;;29.40;99.90;;;;;;5073139;28;20229;-66
2022/04/18 02:55:33;;;;;;;1.42;0.70;;;29.40;99.90;;;;;;5072772;28;20750;-66
2022/04/18 02:58:00;;;;;;;1.20;0.70;;;29.60;99.90;;;;;;5072963;28;20184;-66
2022/04/18 03:00:28;;;;;;;2.20;0.80;;;29.40;99.90;;;;;;5073129;28;20174;-66
2022/04/18 03:02:56;;;;;;;3.40;0.70;;;29.20;99.90;;;;;;5073034;28;20172;-66
2022/04/18 03:05:23;;;;;;;2.10;0.67;;;29.20;99.90;;;;;;5072922;28;20168;-66
2022/04/18 03:07:51;;;;;;;2.37;0.80;;;28.80;99.90;;;;;;5072681;28;20190;-66
2022/04/18 03:11:02;;;;;;;2.40;1.00;;;29.10;99.90;;;;;;5072825;28;20179;-66
2022/04/18 03:13:06;;;;;;;1.73;0.60;;;29.30;99.90;;;;;;5072344;28;20665;-66
2022/04/18 03:15:34;;;;;;;2.07;0.70;;;29.80;99.90;;;;;;5072419;28;20227;-66
2022/04/18 03:18:02;;;;;;;1.70;0.60;;;29.70;99.90;;;;;;5072433;28;20210;-66
2022/04/18 03:20:30;;;;;;;1.33;0.80;;;29.30;99.90;;;;;;5072108;28;20207;-66
2022/04/18 03:22:57;;;;;;;2.17;0.80;;;29.70;99.90;;;;;;5072577;28;20179;-64
2022/04/18 03:25:25;;;;;;;1.23;0.80;;;28.90;99.90;;;;;;5072482;28;20202;-65
2022/04/18 03:27:52;;;;;;;1.23;0.80;;;29.30;99.90;;;;;;5072377;28;20180;-66
2022/04/18 03:30:20;;;;;;;1.23;0.80;;;29.30;99.90;;;;;;5071877;28;20191;-65
2022/04/18 03:32:48;;;;;;;2.43;0.87;;;28.50;99.90;;;;;;5070904;28;20184;-65
2022/04/18 03:35:16;;;;;;;3.70;0.90;;;28.40;99.90;;;;;;5072043;28;20216;-66
2022/04/18 03:40:29;;;;;;;3.20;0.67;;;28.60;99.90;;;;;;5071319;28;20230;-66
2022/04/18 03:42:57;;;;;;;4.83;0.70;;;28.70;99.90;;;;;;5071516;28;20667;-66
2022/04/18 03:45:25;;;;;;;1.23;0.73;;;29.00;99.90;;;;;;5070865;28;20215;-66
2022/04/18 03:47:52;;;;;;;0.97;0.50;;;29.40;99.90;;;;;;5069340;28;20278;-66
2022/04/18 03:50:20;;;;;;;2.33;0.70;;;29.70;99.90;;;;;;5071512;28;20184;-67
2022/04/18 03:52:48;;;;;;;6.63;0.83;;;29.80;99.90;;;;;;5071758;28;20187;-67
2022/04/18 03:55:16;;;;;;;2.07;0.90;;;29.10;99.90;;;;;;5071390;28;20216;-66
2022/04/18 03:57:44;;;;;;;1.67;0.83;;;29.00;99.90;;;;;;5071158;28;20229;-66
2022/04/18 04:00:13;;;;;;;3.37;1.10;;;29.40;99.90;;;;;;5071032;28;20183;-68
2022/04/18 04:02:44;;;;;;;4.20;0.97;;;30.00;99.90;;;;;;5068814;28;20558;-66
2022/04/18 04:05:12;;;;;;;2.03;0.70;;;30.70;99.90;;;;;;5071254;28;20183;-66
2022/04/18 04:07:39;;;;;;;2.20;0.60;;;31.00;99.90;;;;;;5065257;28;20184;-66
2022/04/18 04:10:08;;;;;;;1.40;0.67;;;30.80;99.90;;;;;;5070575;28;20541;-65
2022/04/18 04:12:35;;;;;;;2.13;0.60;;;30.70;99.90;;;;;;5071176;28;20211;-67
2022/04/18 04:15:03;;;;;;;18.08;3.60;;;31.40;99.90;;;;;;5070944;28;20209;-66
2022/04/18 04:17:31;;;;;;;44.00;5.70;;;31.60;99.90;;;;;;5071593;28;20194;-67
2022/04/18 04:20:00;;;;;;;1.67;0.55;;;31.90;99.90;;;;;;5070586;28;20200;-66
2022/04/18 04:22:28;;;;;;;1.50;0.65;;;32.00;99.90;;;;;;5071523;28;20561;-67
2022/04/18 04:24:57;;;;;;;2.90;0.60;;;31.70;99.90;;;;;;5071033;28;20180;-66
2022/04/18 04:27:25;;;;;;;2.83;0.60;;;31.20;99.90;;;;;;5071404;28;20241;-66
2022/04/18 04:29:53;;;;;;;1.80;0.60;;;30.90;99.90;;;;;;5071010;28;20229;-66
2022/04/18 04:32:20;;;;;;;1.83;0.80;;;30.90;99.90;;;;;;5071256;28;20188;-67
2022/04/18 04:34:49;;;;;;;1.73;0.70;;;30.80;99.90;;;;;;5071469;28;20222;-66
2022/04/18 04:37:16;;;;;;;2.35;0.90;;;30.40;99.90;;;;;;5071080;28;20707;-66
2022/04/18 04:39:44;;;;;;;0.63;0.55;;;30.30;99.90;;;;;;5071063;28;20228;-67
2022/04/18 04:42:14;;;;;;;3.00;0.60;;;29.80;99.90;;;;;;5071512;28;20606;-67
2022/04/18 04:44:42;;;;;;;2.67;0.70;;;29.40;99.90;;;;;;5069994;28;20196;-67
2022/04/18 04:47:11;;;;;;;1.80;0.50;;;29.50;99.90;;;;;;5071256;28;20184;-67
2022/04/18 04:49:39;;;;;;;3.50;0.70;;;29.60;99.90;;;;;;5071282;28;20187;-68
2022/04/18 04:52:07;;;;;;;3.40;0.70;;;29.70;99.90;;;;;;5071356;28;20277;-67
2022/04/18 04:54:36;;;;;;;1.67;0.63;;;29.80;99.90;;;;;;5071528;28;20181;-67
2022/04/18 04:57:04;;;;;;;1.93;0.63;;;29.80;99.90;;;;;;5072208;28;20733;-66
2022/04/18 04:59:31;;;;;;;0.80;0.57;;;29.70;99.90;;;;;;5074958;28;20184;-66
2022/04/18 05:01:59;;;;;;;4.10;0.70;;;29.70;99.90;;;;;;5074986;28;20184;-67
2022/04/18 05:04:27;;;;;;;2.17;0.70;;;29.70;99.90;;;;;;5075043;28;20646;-66
2022/04/18 05:06:55;;;;;;;1.17;0.73;;;29.70;99.90;;;;;;5075073;28;20625;-66
2022/04/18 05:09:23;;;;;;;3.27;0.90;;;29.40;99.90;;;;;;5074679;28;20191;-66
2022/04/18 05:11:52;;;;;;;3.30;0.70;;;29.50;99.90;;;;;;5075062;28;20661;-66
2022/04/18 05:14:21;;;;;;;3.80;0.73;;;29.70;99.90;;;;;;5074832;28;20673;-67
2022/04/18 05:16:50;;;;;;;2.37;0.60;;;29.70;99.90;;;;;;5075038;28;20238;-66
2022/04/18 05:19:18;;;;;;;1.97;0.80;;;29.40;99.90;;;;;;5074624;28;20188;-67
2022/04/18 05:21:53;;;;;;;1.30;0.80;;;29.20;99.90;;;;;;5074927;28;20625;-66
2022/04/18 05:24:25;;;;;;;2.00;0.70;;;29.20;99.90;;;;;;5074368;28;20644;-67
2022/04/18 05:26:52;;;;;;;1.60;0.70;;;29.00;99.90;;;;;;5074980;28;20644;-67
2022/04/18 05:29:24;;;;;;;2.80;0.50;;;28.90;99.90;;;;;;5074292;28;20184;-67
2022/04/18 05:31:54;;;;;;;1.53;0.80;;;28.90;99.90;;;;;;5074758;28;20253;-67
2022/04/18 05:34:22;;;;;;;1.07;0.70;;;28.70;99.50;;;;;;5074203;28;20198;-67
2022/04/18 05:36:52;;;;;;;1.37;0.63;;;28.60;99.10;;;;;;5074662;28;20215;-67
2022/04/18 05:39:20;;;;;;;1.67;0.90;;;28.50;99.90;;;;;;5074093;28;20570;-66
2022/04/18 05:41:47;;;;;;;2.60;0.70;;;28.40;98.70;;;;;;5074452;28;20186;-66
2022/04/18 05:44:15;;;;;;;0.50;0.40;;;28.30;96.70;;;;;;5074284;28;20221;-67
2022/04/18 05:46:43;;;;;;;2.07;0.70;;;28.20;97.30;;;;;;5074463;28;20211;-66
2022/04/18 05:49:10;;;;;;;0.93;0.60;;;28.10;99.40;;;;;;5074163;28;20184;-66
2022/04/18 05:51:38;;;;;;;0.90;0.70;;;28.00;97.10;;;;;;5074097;28;20535;-66
2022/04/18 05:54:06;;;;;;;1.37;0.90;;;28.00;97.80;;;;;;5074259;28;20171;-66
2022/04/18 05:56:33;;;;;;;2.30;0.87;;;28.00;99.80;;;;;;5073958;28;20207;-68
2022/04/18 05:59:01;;;;;;;1.33;0.63;;;28.10;97.70;;;;;;5073869;28;20176;-67
2022/04/18 06:01:29;;;;;;;0.87;0.60;;;28.00;94.10;;;;;;5073782;28;20571;-67
2022/04/18 06:03:57;;;;;;;1.10;0.53;;;27.80;99.90;;;;;;5074120;28;20238;-66
2022/04/18 06:06:25;;;;;;;1.97;0.67;;;27.60;99.90;;;;;;5072548;28;20203;-66
2022/04/18 06:08:53;;;;;;;2.67;0.73;;;27.40;99.90;;;;;;5072828;28;20195;-66
2022/04/18 06:11:20;;;;;;;2.23;0.67;;;27.20;99.90;;;;;;5073838;28;20179;-65
2022/04/18 06:13:48;;;;;;;4.30;1.00;;;27.00;99.90;;;;;;5073940;28;20205;-66
2022/04/18 06:16:17;;;;;;;6.73;0.90;;;26.90;99.90;;;;;;5073152;28;20353;-66
2022/04/18 06:18:45;;;;;;;1.43;0.83;;;26.80;99.90;;;;;;5073891;28;20176;-66
2022/04/18 06:21:13;;;;;;;1.63;0.90;;;26.80;99.90;;;;;;5073631;28;20184;-67
2022/04/18 06:23:40;;;;;;;1.73;0.90;;;26.70;99.90;;;;;;5073841;28;20187;-66
2022/04/18 06:26:08;;;;;;;8.00;1.67;;;26.60;99.90;;;;;;5073589;28;20225;-66
2022/04/18 06:28:36;;;;;;;2.13;1.03;;;26.50;99.90;;;;;;5072825;28;20250;-65
2022/04/18 06:31:04;;;;;;;3.47;1.00;;;26.40;99.90;;;;;;5072898;28;20176;-66
2022/04/18 06:33:34;;;;;;;3.13;1.23;;;26.30;99.90;;;;;;5072921;28;20168;-66
2022/04/18 06:36:02;;;;;;;5.03;1.40;;;26.20;99.90;;;;;;5071084;28;20294;-67
2022/04/18 06:38:30;;;;;;;3.67;1.43;;;26.10;99.90;;;;;;5073531;28;20377;-66
2022/04/18 06:41:02;;;;;;;3.00;1.50;;;26.00;99.90;;;;;;5072769;28;20180;-66
2022/04/18 06:43:29;;;;;;;2.70;1.20;;;26.00;99.90;;;;;;5071687;28;20173;-66
2022/04/18 06:45:57;;;;;;;4.57;1.33;;;25.90;99.90;;;;;;5072707;28;20195;-66
2022/04/18 06:48:25;;;;;;;4.53;1.60;;;25.90;99.90;;;;;;5072636;28;20187;-66
2022/04/18 06:50:52;;;;;;;3.90;1.53;;;25.80;99.90;;;;;;5073373;28;20538;-67
2022/04/18 06:53:20;;;;;;;3.93;1.57;;;25.60;99.90;;;;;;5073256;28;20634;-65
2022/04/18 06:58:34;;;;;;;4.77;1.27;;;25.30;99.90;;;;;;5072906;28;20519;-66
2022/04/18 07:01:02;;;;;;;4.47;1.40;;;25.10;99.90;;;;;;5072767;28;20641;-66
2022/04/18 07:03:30;;;;;;;8.33;2.00;;;25.00;99.90;;;;;;5072574;28;20172;-67
2022/04/18 07:05:57;;;;;;;5.63;1.90;;;24.90;99.90;;;;;;5072944;28;20191;-66
2022/04/18 07:08:25;;;;;;;6.13;1.50;;;24.80;99.90;;;;;;5072779;28;20309;-66
2022/04/18 07:10:53;;;;;;;6.70;2.13;;;24.60;99.90;;;;;;5072257;28;20626;-68
2022/04/18 07:13:21;;;;;;;4.63;1.80;;;24.40;99.90;;;;;;5072772;28;20518;-66
2022/04/18 07:15:48;;;;;;;5.40;1.80;;;24.30;99.90;;;;;;5072380;28;20228;-66
2022/04/18 07:18:16;;;;;;;3.83;1.50;;;24.30;99.90;;;;;;5072231;28;20707;-66
2022/04/18 07:20:44;;;;;;;5.27;1.87;;;24.20;99.90;;;;;;5071522;28;20190;-65
2022/04/18 07:23:12;;;;;;;6.33;2.23;;;24.10;99.90;;;;;;5072444;28;20180;-66
2022/04/18 07:25:40;;;;;;;3.03;1.93;;;24.00;99.90;;;;;;5072311;28;20198;-66
2022/04/18 07:28:08;;;;;;;8.47;2.40;;;23.90;99.90;;;;;;5072163;28;20183;-66
2022/04/18 07:30:36;;;;;;;8.77;2.60;;;23.80;99.90;;;;;;5072480;28;20202;-66
2022/04/18 07:33:03;;;;;;;6.47;2.17;;;23.70;99.90;;;;;;5072254;28;20230;-66
2022/04/18 07:35:32;;;;;;;11.93;2.80;;;23.60;99.90;;;;;;5072269;28;20309;-66
2022/04/18 07:40:46;;;;;;;8.10;3.03;;;23.40;99.90;;;;;;5072102;28;20194;-66
2022/04/18 07:43:14;;;;;;;8.37;2.20;;;23.20;99.90;;;;;;5070984;28;20645;-66
2022/04/18 07:45:41;;;;;;;11.10;2.43;;;23.20;99.90;;;;;;5072453;28;20625;-65
2022/04/18 07:48:09;;;;;;;5.43;2.20;;;23.10;99.90;;;;;;5071762;28;20264;-65
2022/04/18 07:53:23;;;;;;;5.93;2.10;;;22.90;99.90;;;;;;5072283;28;20313;-67
2022/04/18 07:55:51;;;;;;;7.07;2.20;;;22.90;99.90;;;;;;5072098;28;20222;-67
2022/04/18 07:58:18;;;;;;;6.53;2.40;;;22.90;99.90;;;;;;5071964;28;20192;-66
2022/04/18 08:00:46;;;;;;;8.30;2.13;;;22.80;99.90;;;;;;5072076;28;20190;-66
2022/04/18 08:03:16;;;;;;;7.23;2.37;;;22.80;99.90;;;;;;5072212;28;20175;-66
2022/04/18 08:05:44;;;;;;;8.70;2.60;;;22.70;99.90;;;;;;5071687;28;20237;-66
2022/04/18 08:08:11;;;;;;;7.00;2.47;;;22.70;99.90;;;;;;5072006;28;20245;-66
2022/04/18 08:10:39;;;;;;;5.37;2.00;;;22.50;99.90;;;;;;5072075;28;20176;-66
2022/04/18 08:13:07;;;;;;;4.20;2.20;;;22.40;99.90;;;;;;5072020;28;20215;-65
2022/04/18 08:15:35;;;;;;;6.37;2.60;;;22.30;99.90;;;;;;5071670;28;20293;-65
2022/04/18 08:18:03;;;;;;;8.57;2.37;;;22.10;99.90;;;;;;5071517;28;20192;-65
2022/04/18 08:20:31;;;;;;;6.60;2.40;;;22.00;99.90;;;;;;5071983;28;20183;-65
2022/04/18 08:22:58;;;;;;;6.90;2.70;;;21.80;99.90;;;;;;5071877;28;20681;-66
2022/04/18 08:25:26;;;;;;;6.30;2.57;;;21.70;99.90;;;;;;5071643;28;20285;-66
2022/04/18 08:27:54;;;;;;;8.33;2.97;;;21.60;99.90;;;;;;5071722;28;20602;-66
2022/04/18 08:30:21;;;;;;;5.97;3.13;;;21.50;99.90;;;;;;5071805;28;20663;-67
2022/04/18 08:32:50;;;;;;;4.03;2.30;;;21.40;99.90;;;;;;5073429;28;20262;-66
2022/04/18 08:35:18;;;;;;;7.20;2.63;;;21.50;99.90;;;;;;5075802;28;20278;-66
2022/04/18 08:37:46;;;;;;;5.23;2.37;;;21.40;99.90;;;;;;5076091;28;20176;-66
2022/04/18 08:40:14;;;;;;;6.20;2.40;;;21.60;99.90;;;;;;5075731;28;20544;-68
2022/04/18 08:42:42;;;;;;;6.97;2.40;;;21.60;99.90;;;;;;5075995;28;20176;-66
2022/04/18 08:45:16;;;;;;;4.97;2.13;;;21.50;99.90;;;;;;5075359;28;20266;-66
2022/04/18 08:53:16;;;;;;;5.33;2.27;;;21.70;99.90;;;;;;5074267;28;20234;-68
2022/04/18 08:55:44;;;;;;;8.03;2.00;;;21.60;99.90;;;;;;5075036;28;20302;-67
2022/04/18 08:58:14;;;;;;;4.93;2.00;;;21.60;99.90;;;;;;5075136;28;20176;-67
2022/04/18 09:00:42;;;;;;;3.77;1.80;;;21.50;99.90;;;;;;5075310;28;20241;-68
2022/04/18 09:03:10;;;;;;;3.93;1.93;;;21.40;99.90;;;;;;5075620;28;20168;-67
2022/04/18 09:05:39;;;;;;;7.63;2.10;;;21.30;99.90;;;;;;5075556;28;20176;-66
2022/04/18 09:08:09;;;;;;;5.07;2.30;;;21.30;99.90;;;;;;5075198;28;20188;-68
2022/04/18 09:10:38;;;;;;;5.90;2.00;;;21.20;99.90;;;;;;5075003;28;20184;-67
2022/04/18 09:13:11;;;;;;;3.20;1.50;;;21.20;99.90;;;;;;5076398;28;20183;-68
2022/04/18 09:15:40;;;;;;;6.03;1.93;;;21.00;99.90;;;;;;5075737;28;20703;-68
2022/04/18 09:18:08;;;;;;;5.33;1.50;;;20.80;99.90;;;;;;5076205;28;20617;-68
2022/04/18 09:20:49;;;;;;;5.47;1.70;;;20.70;99.90;;;;;;5075703;28;20172;-68
2022/04/18 09:23:23;;;;;;;2.43;1.77;;;20.60;99.90;;;;;;5076313;28;20193;-68
2022/04/18 09:25:56;;;;;;;2.07;1.70;;;20.60;99.90;;;;;;5077539;28;20176;-67
2022/04/18 09:28:26;;;;;;;3.93;2.00;;;20.50;99.90;;;;;;5075935;28;20243;-68
2022/04/18 09:31:13;;;;;;;7.37;3.23;;;20.40;99.90;;;;;;5076293;28;20187;-67
2022/04/18 09:33:45;;;;;;;8.47;5.10;;;20.50;99.90;;;;;;5076137;28;20214;-67
2022/04/18 09:36:17;;;;;;;5.20;3.40;;;20.50;99.90;;;;;;5076350;28;20204;-69
2022/04/18 09:38:49;;;;;;;6.37;4.03;;;20.40;99.90;;;;;;5076196;28;20172;-68
2022/04/18 09:41:28;;;;;;;9.13;4.20;;;20.30;99.90;;;;;;5076095;28;20268;-68
2022/04/18 09:43:56;;;;;;;8.93;4.20;;;20.20;99.90;;;;;;5074922;28;20172;-68
2022/04/18 09:46:24;;;;;;;9.47;4.30;;;20.10;99.90;;;;;;5075667;28;20516;-67
2022/04/18 09:48:53;;;;;;;9.17;4.60;;;20.10;99.90;;;;;;5075811;28;20232;-68
2022/04/18 09:51:33;;;;;;;6.87;4.20;;;20.00;99.90;;;;;;5075771;28;20541;-69
2022/04/18 09:54:03;;;;;;;9.97;5.03;;;19.90;99.90;;;;;;5076028;28;20688;-68
2022/04/18 09:56:31;;;;;;;9.23;4.00;;;19.80;99.90;;;;;;5074451;28;20233;-69
2022/04/18 09:59:01;;;;;;;7.33;4.13;;;19.70;99.90;;;;;;5075733;28;20179;-68
2022/04/18 10:01:30;;;;;;;7.37;3.50;;;19.60;99.90;;;;;;5075780;28;20580;-67
2022/04/18 10:03:59;;;;;;;8.17;3.47;;;19.50;99.90;;;;;;5073871;28;20336;-68
2022/04/18 10:06:26;;;;;;;12.10;4.33;;;19.50;99.90;;;;;;5075569;28;20186;-69
2022/04/18 10:08:55;;;;;;;9.20;4.63;;;19.40;99.90;;;;;;5075313;28;20248;-68
2022/04/18 10:11:24;;;;;;;11.07;5.87;;;19.40;99.90;;;;;;5075538;28;20187;-68
2022/04/18 10:13:51;;;;;;;11.87;5.17;;;19.40;99.90;;;;;;5075491;28;20203;-68
2022/04/18 10:16:21;;;;;;;11.13;5.27;;;19.40;99.90;;;;;;5074922;28;20284;-69
2022/04/18 10:18:54;;;;;;;7.57;5.00;;;19.30;99.90;;;;;;5075333;28;20182;-68
2022/04/18 10:21:32;;;;;;;8.97;5.50;;;19.20;99.90;;;;;;5075396;28;20190;-69
2022/04/18 10:23:59;;;;;;;9.30;6.17;;;19.10;99.90;;;;;;5075234;28;20182;-67
2022/04/18 10:26:34;;;;;;;9.10;5.23;;;19.10;99.90;;;;;;5074777;28;20273;-67
2022/04/18 10:29:18;;;;;;;10.17;5.07;;;19.00;99.90;;;;;;5074760;28;20277;-66
2022/04/18 10:31:46;;;;;;;9.50;4.67;;;19.00;99.90;;;;;;5074858;28;20578;-66
2022/04/18 10:34:15;;;;;;;7.23;4.47;;;19.00;99.90;;;;;;5075056;28;20172;-66
2022/04/18 10:36:47;;;;;;;8.40;4.93;;;18.90;99.90;;;;;;5074897;28;20302;-66
2022/04/18 10:39:17;;;;;;;7.77;5.00;;;18.80;99.90;;;;;;5075111;28;20301;-68
2022/04/18 10:41:46;;;;;;;10.17;5.50;;;18.80;99.90;;;;;;5074950;28;20259;-66
2022/04/18 10:44:20;;;;;;;10.10;5.50;;;18.80;99.90;;;;;;5074840;28;20266;-68
2022/04/18 10:46:55;;;;;;;10.10;5.90;;;18.70;99.90;;;;;;5074403;28;20226;-66
2022/04/18 10:49:24;;;;;;;11.50;5.80;;;18.80;99.90;;;;;;5072334;28;20176;-68
2022/04/18 10:51:54;;;;;;;13.03;5.60;;;18.80;99.90;;;;;;5074386;28;20190;-67
2022/04/18 10:54:22;;;;;;;7.67;5.20;;;18.80;99.90;;;;;;5074318;28;20242;-67
2022/04/18 10:56:52;;;;;;;8.93;5.70;;;18.70;99.90;;;;;;5074201;28;20223;-67
2022/04/18 10:59:24;;;;;;;10.13;5.43;;;18.70;99.90;;;;;;5074446;28;20178;-67
2022/04/18 11:01:54;;;;;;;10.67;5.83;;;18.70;99.90;;;;;;5074366;28;20182;-67
2022/04/18 11:04:40;;;;;;;9.97;5.53;;;18.70;99.90;;;;;;5074345;28;20200;-67
2022/04/18 11:07:12;;;;;;;12.83;6.23;;;18.60;99.90;;;;;;5073897;28;20189;-68
2022/04/18 11:09:48;;;;;;;9.07;5.17;;;18.60;99.90;;;;;;5074207;28;20257;-69
2022/04/18 11:12:21;;;;;;;8.50;5.23;;;18.50;99.90;;;;;;5073971;28;20670;-67
2022/04/18 11:14:51;;;;;;;11.00;5.30;;;18.50;99.90;;;;;;5074105;28;20173;-66
2022/04/18 11:17:42;;;;;;;9.30;5.17;;;18.50;99.90;;;;;;5074352;28;20553;-68
2022/04/18 11:20:35;;;;;;;10.97;5.30;;;18.40;99.90;;;;;;5073971;28;20174;-67
2022/04/18 11:23:27;;;;;;;9.97;5.10;;;18.40;99.90;;;;;;5072680;28;20779;-67
2022/04/18 11:25:59;;;;;;;15.70;5.97;;;18.30;99.90;;;;;;5073859;28;20683;-68
2022/04/18 11:28:43;;;;;;;9.60;5.13;;;18.30;99.90;;;;;;5074189;28;20216;-68
2022/04/18 11:31:29;;;;;;;8.83;4.93;;;18.20;99.90;;;;;;5067368;28;20182;-67
2022/04/18 11:34:02;;;;;;;8.67;5.37;;;18.10;99.90;;;;;;5073954;28;20169;-67
2022/04/18 11:36:33;;;;;;;7.60;5.40;;;18.10;99.90;;;;;;5073722;28;20295;-68
2022/04/18 11:39:10;;;;;;;9.77;4.77;;;18.00;99.90;;;;;;5073847;28;20258;-68
2022/04/18 11:41:38;;;;;;;9.03;5.17;;;18.00;99.90;;;;;;5073806;28;20176;-68
2022/04/18 11:44:06;;;;;;;8.33;4.70;;;17.90;99.90;;;;;;5073505;28;20172;-67
2022/04/18 11:46:33;;;;;;;9.27;4.83;;;17.90;99.90;;;;;;5073819;28;20535;-68
2022/04/18 11:49:01;;;;;;;7.30;4.83;;;17.80;99.90;;;;;;5072876;28;20176;-67
2022/04/18 11:51:41;;;;;;;9.87;5.00;;;17.90;99.90;;;;;;5073605;28;20184;-68
2022/04/18 11:54:09;;;;;;;9.33;5.10;;;17.90;99.90;;;;;;5073546;28;20224;-68
2022/04/18 11:56:37;;;;;;;8.63;5.50;;;17.90;99.90;;;;;;5073267;28;20231;-67
2022/04/18 11:59:06;;;;;;;9.67;5.33;;;17.80;99.90;;;;;;5073197;28;20643;-67
2022/04/18 12:07:06;;;;;;;7.87;5.50;;;17.70;99.90;;;;;;5072565;28;20224;-67
2022/04/18 12:09:33;;;;;;;15.60;5.37;;;17.60;99.90;;;;;;5073168;28;20188;-66
2022/04/18 12:12:02;;;;;;;8.87;4.47;;;17.60;99.90;;;;;;5073044;28;20188;-67
2022/04/18 12:14:33;;;;;;;6.23;3.97;;;17.60;99.90;;;;;;5073205;28;20203;-66
2022/04/18 12:17:09;;;;;;;10.27;4.27;;;17.50;99.90;;;;;;5072854;28;20231;-67
2022/04/18 12:19:37;;;;;;;8.57;4.47;;;17.50;99.90;;;;;;5073214;28;20175;-68
2022/04/18 12:22:04;;;;;;;5.90;4.47;;;17.40;99.90;;;;;;5073278;28;20183;-67
2022/04/18 12:24:40;;;;;;;6.90;3.93;;;17.40;99.90;;;;;;5073056;28;20168;-66
2022/04/18 12:27:08;;;;;;;8.67;4.57;;;17.30;99.90;;;;;;5073352;28;20171;-67
2022/04/18 12:29:36;;;;;;;9.53;5.37;;;17.30;99.90;;;;;;5072991;28;20186;-66
2022/04/18 12:32:04;;;;;;;10.90;4.80;;;17.30;99.90;;;;;;5073035;28;20180;-66
2022/04/18 12:34:31;;;;;;;11.50;5.43;;;17.30;99.90;;;;;;5072762;28;20221;-66
2022/04/18 12:37:01;;;;;;;10.70;4.83;;;17.30;99.90;;;;;;5073170;28;20211;-67
2022/04/18 12:39:29;;;;;;;11.33;5.10;;;17.30;99.90;;;;;;5073098;28;20269;-67
2022/04/18 12:42:09;;;;;;;4.90;4.00;;;17.20;99.90;;;;;;5072938;28;20185;-67
2022/04/18 12:44:39;;;;;;;7.43;4.33;;;17.20;99.90;;;;;;5072879;28;20171;-66
2022/04/18 12:47:22;;;;;;;8.30;4.00;;;17.10;99.90;;;;;;5052903;28;20306;-67
2022/04/18 12:50:09;;;;;;;7.50;4.47;;;17.10;99.90;;;;;;5052784;28;20267;-67
2022/04/18 12:52:50;;;;;;;7.50;4.50;;;17.10;99.90;;;;;;5061136;28;20183;-67
2022/04/18 12:55:31;;;;;;;7.07;3.93;;;17.10;99.90;;;;;;5072584;28;20238;-66
2022/04/18 12:58:00;;;;;;;8.90;4.37;;;17.00;99.90;;;;;;5072907;28;20185;-67
2022/04/18 13:00:38;;;;;;;6.23;3.87;;;17.00;99.90;;;;;;5071666;28;20200;-67
2022/04/18 13:03:09;;;;;;;6.90;3.53;;;16.90;99.90;;;;;;5073163;28;20199;-66
2022/04/18 13:05:50;;;;;;;9.33;4.50;;;16.90;99.90;;;;;;5072751;28;20645;-67
2022/04/18 13:08:18;;;;;;;11.33;4.37;;;16.90;99.90;;;;;;5072495;28;20694;-67
2022/04/18 13:10:46;;;;;;;13.73;4.07;;;16.80;99.90;;;;;;5072709;28;20175;-66
2022/04/18 13:13:19;;;;;;;8.00;4.60;;;16.80;99.90;;;;;;5072416;28;20207;-66
2022/04/18 13:15:48;;;;;;;6.87;4.17;;;16.80;99.90;;;;;;5072280;28;20693;-67
2022/04/18 13:18:22;;;;;;;9.33;4.57;;;16.80;99.90;;;;;;5073736;28;20219;-66
2022/04/18 13:20:50;;;;;;;8.13;4.23;;;16.80;99.90;;;;;;5076392;28;20199;-66
2022/04/18 13:23:19;;;;;;;9.97;4.10;;;16.70;99.90;;;;;;5076543;28;20177;-67